createdAt,value
2019-05-16T00:04:37.963Z,13.3
2019-05-16T00:09:34.214Z,13.3
2019-05-16T00:14:31.259Z,13.2
2019-05-16T00:19:28.741Z,13.2
2019-05-16T00:24:24.693Z,13.2
2019-05-16T00:29:21.963Z,13.2
2019-05-16T00:34:18.913Z,13
2019-05-16T00:39:15.514Z,13.1
2019-05-16T00:44:12.857Z,13.1
2019-05-16T00:49:09.144Z,13.1
2019-05-16T00:54:08.065Z,13.1
2019-05-16T00:59:02.936Z,13.1
2019-05-16T01:08:57.934Z,13.1
2019-05-16T01:13:52.644Z,13.1
2019-05-16T01:18:50.054Z,12.9
2019-05-16T01:23:48.178Z,12.8
2019-05-16T01:28:43.782Z,12.4
2019-05-16T01:33:40.883Z,12.7
2019-05-16T01:38:38.964Z,12.4
2019-05-16T01:43:34.531Z,12.9
2019-05-16T01:48:31.048Z,12.4
2019-05-16T01:53:27.933Z,12.5
2019-05-16T01:58:24.632Z,12.8
2019-05-16T02:03:21.658Z,13
2019-05-16T02:08:18.836Z,12.1
2019-05-16T02:13:17.730Z,12.8
2019-05-16T02:18:12.140Z,12.9
2019-05-16T02:23:08.421Z,12.9
2019-05-16T02:28:05.142Z,12.7
2019-05-16T02:33:02.386Z,12.8
2019-05-16T02:38:00.914Z,12.8
2019-05-16T02:47:53.197Z,12.9
2019-05-16T02:52:51.646Z,12.9
2019-05-16T02:57:47.203Z,12.9
2019-05-16T03:02:44.188Z,12.9
2019-05-16T03:07:46.483Z,12.9
2019-05-16T03:12:40.838Z,13
2019-05-16T03:17:35.107Z,13
2019-05-16T03:22:31.920Z,13
2019-05-16T03:27:30.509Z,13
2019-05-16T03:32:25.965Z,13
2019-05-16T03:37:24.765Z,12.9
2019-05-16T03:42:20.545Z,12.2
2019-05-16T03:47:16.845Z,12.8
2019-05-16T03:52:13.693Z,12.9
2019-05-16T03:57:11.617Z,12.9
2019-05-16T04:02:04.703Z,12.9
2019-05-16T04:07:01.750Z,12.8
2019-05-16T04:12:01.738Z,12.8
2019-05-16T04:16:55.242Z,12.3
2019-05-16T04:21:52.325Z,12.4
2019-05-16T04:26:51.604Z,12.5
2019-05-16T04:31:45.326Z,12.4
2019-05-16T04:36:42.050Z,12.8
2019-05-16T04:41:40.883Z,12.3
2019-05-16T04:46:35.434Z,12.5
2019-05-16T04:51:32.820Z,12.7
2019-05-16T04:56:30.800Z,12.9
2019-05-16T05:01:30.486Z,12.9
2019-05-16T05:06:25.008Z,12.9
2019-05-16T05:11:21.870Z,12.4
2019-05-16T05:16:20.239Z,13
2019-05-16T05:21:15.200Z,12.5
2019-05-16T05:26:12.115Z,13.1
2019-05-16T05:31:10.771Z,12.9
2019-05-16T05:36:05.224Z,13.2
2019-05-16T05:41:02.297Z,12.5
2019-05-16T05:46:00.619Z,13.2
2019-05-16T05:50:56.386Z,12.7
2019-05-16T05:55:52.829Z,13.2
2019-05-16T06:00:51.648Z,13.3
2019-05-16T06:05:46.739Z,13.2
2019-05-16T06:10:43.528Z,13.3
2019-05-16T06:15:40.729Z,13.3
2019-05-16T06:20:37.507Z,13.4
2019-05-16T06:25:33.658Z,13.4
2019-05-16T06:30:30.833Z,13.5
2019-05-16T06:35:29.876Z,13.6
2019-05-16T06:40:24.842Z,13.6
2019-05-16T06:45:21.681Z,13.2
2019-05-16T06:50:20.784Z,13.2
2019-05-16T06:55:16.009Z,13.7
2019-05-16T07:00:12.930Z,13.8
2019-05-16T07:05:10.086Z,13.8
2019-05-16T07:10:06.774Z,13.8
2019-05-16T07:15:03.795Z,13.9
2019-05-16T07:20:00.831Z,13.9
2019-05-16T07:24:56.603Z,14
2019-05-16T07:29:53.938Z,13.6
2019-05-16T07:34:50.934Z,14.2
2019-05-16T07:39:50.561Z,14.3
2019-05-16T07:44:44.904Z,14.3
2019-05-16T07:49:42.226Z,14.4
2019-05-16T07:54:40.330Z,14.5
2019-05-16T07:59:35.955Z,14.4
2019-05-16T08:04:32.917Z,14.7
2019-05-16T08:09:30.583Z,14.8
2019-05-16T08:14:26.827Z,14.8
2019-05-16T08:19:25.252Z,14.9
2019-05-16T08:24:21.334Z,14.9
2019-05-16T08:29:18.153Z,15.1
2019-05-16T08:34:15.208Z,15.1
2019-05-16T08:39:12.002Z,15.2
2019-05-16T08:44:12.242Z,14.7
2019-05-16T08:49:06.335Z,12.5
2019-05-16T08:54:03.304Z,15.3
2019-05-16T08:59:02.376Z,15.4
2019-05-16T09:04:01.147Z,15
2019-05-16T09:08:58.366Z,15.1
2019-05-16T09:13:51.821Z,15.7
2019-05-16T09:18:50.808Z,14.9
2019-05-16T09:23:47.005Z,15.9
2019-05-16T09:28:43.632Z,16
2019-05-16T09:33:40.603Z,16
2019-05-16T09:38:38.562Z,15.8
2019-05-16T09:43:38.504Z,16.1
2019-05-16T09:48:32.075Z,16.2
2019-05-16T09:53:29.633Z,15.7
2019-05-16T09:58:27.751Z,16.4
2019-05-16T10:03:23.915Z,16.4
2019-05-16T10:08:21.067Z,16.5
2019-05-16T10:13:18.369Z,16.5
2019-05-16T10:18:16.820Z,16.4
2019-05-16T10:23:14.492Z,16.6
2019-05-16T10:28:09.447Z,16.3
2019-05-16T10:33:07.018Z,15.5
2019-05-16T10:38:03.611Z,16.6
2019-05-16T10:43:00.802Z,16.5
2019-05-16T10:47:57.119Z,16.5
2019-05-16T10:53:13.612Z,16.3
2019-05-16T10:57:50.835Z,16.4
2019-05-16T11:02:47.847Z,16.2
2019-05-16T11:07:44.429Z,16.3
2019-05-16T11:12:49.792Z,16.3
2019-05-16T11:17:39.205Z,16.3
2019-05-16T11:22:37.106Z,16.1
2019-05-16T11:27:33.229Z,16.2
2019-05-16T11:32:29.849Z,16
2019-05-16T11:37:27.882Z,16
2019-05-16T11:42:23.848Z,15.9
2019-05-16T11:47:20.759Z,15.5
2019-05-16T11:52:18.109Z,15.3
2019-05-16T11:57:14.226Z,15.3
2019-05-16T12:02:10.990Z,14.9
2019-05-16T12:07:07.856Z,14.6
2019-05-16T12:12:04.929Z,14.4
2019-05-16T12:17:01.984Z,14.9
2019-05-16T12:21:59.589Z,14.8
2019-05-16T12:26:56.856Z,15.3
2019-05-16T12:31:59.507Z,15.3
2019-05-16T12:36:50.777Z,16
2019-05-16T12:41:49.054Z,16.1
2019-05-16T12:46:47.341Z,16.5
2019-05-16T12:51:43.780Z,16.3
2019-05-16T12:56:40.898Z,16.3
2019-05-16T13:01:38.680Z,16.4
2019-05-16T13:06:37.062Z,17.1
2019-05-16T13:11:32.615Z,16.9
2019-05-16T13:16:29.714Z,16.8
2019-05-16T13:21:27.480Z,16.7
2019-05-16T13:26:23.681Z,16.1
2019-05-16T13:31:20.661Z,16.5
2019-05-16T13:36:17.695Z,16.4
2019-05-16T13:41:17.986Z,16
2019-05-16T13:46:08.719Z,16.3
2019-05-16T13:51:11.688Z,16.4
2019-05-16T13:56:06.245Z,16.4
2019-05-16T14:00:59.923Z,16.4
2019-05-16T14:05:58.159Z,16.3
2019-05-16T14:11:00.648Z,16.3
2019-05-16T14:15:51.757Z,15.5
2019-05-16T14:20:49.016Z,15.6
2019-05-16T14:25:47.938Z,16.2
2019-05-16T14:30:42.576Z,16.2
2019-05-16T14:35:39.969Z,15.7
2019-05-16T14:40:37.632Z,15.7
2019-05-16T14:45:36.989Z,15.7
2019-05-16T14:50:32.290Z,15.6
2019-05-16T14:55:29.534Z,16
2019-05-16T15:00:27.920Z,15.9
2019-05-16T15:05:24.178Z,15.6
2019-05-16T15:10:21.807Z,15.2
2019-05-16T15:15:23.972Z,15.8
2019-05-16T15:20:18.166Z,15.9
2019-05-16T15:25:13.373Z,16
2019-05-16T15:30:10.499Z,16.1
2019-05-16T15:35:07.690Z,16.2
2019-05-16T15:40:07.028Z,16.3
2019-05-16T15:45:01.659Z,16.3
2019-05-16T15:49:59.746Z,15.9
2019-05-16T15:54:55.679Z,16.5
2019-05-16T15:59:52.061Z,16.5
2019-05-16T16:04:48.816Z,16.4
2019-05-16T16:09:46.995Z,16.5
2019-05-16T16:14:43.260Z,15.9
2019-05-16T16:19:39.692Z,15.6
2019-05-16T16:24:36.552Z,16.2
2019-05-16T16:29:36.588Z,15.5
2019-05-16T16:34:31.263Z,16.1
2019-05-16T16:39:28.842Z,15.7
2019-05-16T16:44:27.440Z,16.2
2019-05-16T16:49:21.945Z,16.1
2019-05-16T16:54:18.527Z,16
2019-05-16T16:59:17.225Z,16
2019-05-16T17:04:12.860Z,15.9
2019-05-16T17:09:10.212Z,15.9
2019-05-16T17:14:07.337Z,15.7
2019-05-16T17:19:04.031Z,15.7
2019-05-16T17:24:00.920Z,15.6
2019-05-16T17:28:57.980Z,15.4
2019-05-16T17:33:57.683Z,15.3
2019-05-16T17:38:51.847Z,15.4
2019-05-16T17:43:49.413Z,15.2
2019-05-16T17:48:46.768Z,14.9
2019-05-16T17:53:43.189Z,14.4
2019-05-16T17:58:40.161Z,14.8
2019-05-16T18:03:37.511Z,14.4
2019-05-16T18:08:34.085Z,14.8
2019-05-16T18:13:31.360Z,14.8
2019-05-16T18:18:27.742Z,14.7
2019-05-16T18:23:27.272Z,14.1
2019-05-16T18:28:22.221Z,14.3
2019-05-16T18:33:18.928Z,14.3
2019-05-16T18:38:16.185Z,14.5
2019-05-16T18:43:13.122Z,14.1
2019-05-16T18:48:10.013Z,14.1
2019-05-16T18:53:07.410Z,14.4
2019-05-16T18:58:07.623Z,13.8
2019-05-16T19:03:01.722Z,14.2
2019-05-16T19:07:58.550Z,14.2
2019-05-16T19:12:56.465Z,14
2019-05-16T19:17:52.580Z,14.1
2019-05-16T19:22:49.470Z,13.8
2019-05-16T19:27:46.967Z,14
2019-05-16T19:32:44.019Z,13.9
2019-05-16T19:37:40.931Z,14
2019-05-16T19:42:38.259Z,14.1
2019-05-16T19:47:40.308Z,13.9
2019-05-16T19:52:31.904Z,13.8
2019-05-16T19:57:29.389Z,13.8
2019-05-16T20:02:27.293Z,13.5
2019-05-16T20:07:23.385Z,13.6
2019-05-16T20:12:20.242Z,13.6
2019-05-16T20:17:19.143Z,13.6
2019-05-16T20:22:13.909Z,13.5
2019-05-16T20:27:10.801Z,12.6
2019-05-16T20:32:09.821Z,13.3
2019-05-16T20:37:06.072Z,12.9
2019-05-16T20:42:02.259Z,13.5
2019-05-16T20:46:59.299Z,13.3
2019-05-16T20:51:57.771Z,13.3
2019-05-16T20:56:53.663Z,13.4
2019-05-16T21:01:50.557Z,13.2
2019-05-16T21:06:57.395Z,13.4
2019-05-16T21:11:46.792Z,13.2
2019-05-16T21:16:41.734Z,12.1
2019-05-16T21:21:38.830Z,12.6
2019-05-16T21:26:36.760Z,12.6
2019-05-16T21:31:33.368Z,13.1
2019-05-16T21:36:30.608Z,13
2019-05-16T21:41:27.192Z,12.4
2019-05-16T21:46:26.978Z,12.8
2019-05-16T21:51:21.298Z,12.2
2019-05-16T21:56:18.075Z,13
2019-05-16T22:01:15.186Z,12.8
2019-05-16T22:06:12.086Z,12.7
2019-05-16T22:11:08.985Z,12.5
2019-05-16T22:16:08.020Z,12.3
2019-05-16T22:21:02.753Z,12.3
2019-05-16T22:26:00.302Z,13
2019-05-16T22:30:58.462Z,12.4
2019-05-16T22:35:53.599Z,12
2019-05-16T22:40:50.533Z,12.2
2019-05-16T22:45:47.763Z,12.2
2019-05-16T22:50:44.699Z,12.1
2019-05-16T22:55:41.335Z,12.4
2019-05-16T23:00:41.250Z,12.3
2019-05-16T23:05:36.814Z,12.3
2019-05-16T23:10:32.363Z,12.1
2019-05-16T23:15:29.220Z,12.1
2019-05-16T23:20:27.710Z,12.1
2019-05-16T23:25:23.339Z,12.6
2019-05-16T23:30:20.087Z,12.1
2019-05-16T23:35:17.210Z,12.2
2019-05-16T23:40:13.867Z,12.3
2019-05-16T23:45:11.095Z,12.2
2019-05-16T23:50:08.033Z,12.2
2019-05-16T23:55:07.858Z,12.7
